sensor_id;sensor_type;location;lat;lon;timestamp;pressure;altitude;pressure_sealevel;temperature;humidity
48800;BME280;34611;47.964;7.982;2023-04-02T00:06:01;96077.53;;;11.16;63.65
48800;BME280;34611;47.964;7.982;2023-04-02T00:13:35;96078.34;;;11.17;63.72
48800;BME280;34611;47.964;7.982;2023-04-02T00:20:36;96096.53;;;11.17;63.78
48800;BME280;34611;47.964;7.982;2023-04-02T00:27:39;96100.94;;;11.16;63.68
48800;BME280;34611;47.964;7.982;2023-04-02T00:34:40;96091.50;;;11.15;63.58
48800;BME280;34611;47.964;7.982;2023-04-02T00:41:40;96085.31;;;11.16;63.80
48800;BME280;34611;47.964;7.982;2023-04-02T00:48:57;96094.13;;;11.15;63.66
48800;BME280;34611;47.964;7.982;2023-04-02T00:55:58;96105.19;;;11.17;63.57
48800;BME280;34611;47.964;7.982;2023-04-02T01:24:47;96100.28;;;11.14;63.73
48800;BME280;34611;47.964;7.982;2023-04-02T01:31:48;96106.13;;;11.16;63.71
48800;BME280;34611;47.964;7.982;2023-04-02T01:38:52;96110.53;;;11.16;63.70
48800;BME280;34611;47.964;7.982;2023-04-02T01:45:56;96112.31;;;11.15;63.70
48800;BME280;34611;47.964;7.982;2023-04-02T01:52:58;96104.53;;;11.15;63.83
48800;BME280;34611;47.964;7.982;2023-04-02T01:59:59;96109.56;;;11.17;63.66
48800;BME280;34611;47.964;7.982;2023-04-02T02:07:01;96111.34;;;11.16;63.63
48800;BME280;34611;47.964;7.982;2023-04-02T02:14:20;96113.13;;;11.16;63.60
48800;BME280;34611;47.964;7.982;2023-04-02T02:28:33;96128.75;;;11.16;63.76
48800;BME280;34611;47.964;7.982;2023-04-02T02:35:42;96125.34;;;11.15;63.66
48800;BME280;34611;47.964;7.982;2023-04-02T02:42:50;96133.94;;;11.16;63.57
48800;BME280;34611;47.964;7.982;2023-04-02T02:49:52;96137.34;;;11.16;63.36
48800;BME280;34611;47.964;7.982;2023-04-02T02:56:56;96146.94;;;11.16;63.75
48800;BME280;34611;47.964;7.982;2023-04-02T03:04:00;96157.22;;;11.17;63.70
48800;BME280;34611;47.964;7.982;2023-04-02T03:11:09;96161.56;;;11.17;63.80
48800;BME280;34611;47.964;7.982;2023-04-02T03:18:13;96165.03;;;11.17;63.75
48800;BME280;34611;47.964;7.982;2023-04-02T03:32:21;96183.22;;;11.17;63.59
48800;BME280;34611;47.964;7.982;2023-04-02T03:39:25;96185.84;;;11.17;63.81
48800;BME280;34611;47.964;7.982;2023-04-02T03:53:31;96191.97;;;11.16;63.60
48800;BME280;34611;47.964;7.982;2023-04-02T04:00:34;96204.03;;;11.17;63.63
48800;BME280;34611;47.964;7.982;2023-04-02T04:07:37;96211.97;;;11.16;63.87
48800;BME280;34611;47.964;7.982;2023-04-02T04:14:41;96223.19;;;11.16;63.71
48800;BME280;34611;47.964;7.982;2023-04-02T04:21:44;96229.22;;;11.17;63.66
48800;BME280;34611;47.964;7.982;2023-04-02T04:35:59;96243.06;;;11.17;63.70
48800;BME280;34611;47.964;7.982;2023-04-02T04:43:04;96240.59;;;11.16;63.55
48800;BME280;34611;47.964;7.982;2023-04-02T04:50:07;96264.00;;;11.16;63.77
48800;BME280;34611;47.964;7.982;2023-04-02T04:57:21;96264.81;;;11.16;63.60
48800;BME280;34611;47.964;7.982;2023-04-02T05:04:29;96264.00;;;11.16;63.66
48800;BME280;34611;47.964;7.982;2023-04-02T05:11:33;96283.03;;;11.16;63.85
48800;BME280;34611;47.964;7.982;2023-04-02T05:18:52;96284.00;;;11.15;63.69
48800;BME280;34611;47.964;7.982;2023-04-02T05:25:59;96288.22;;;11.16;63.45
48800;BME280;34611;47.964;7.982;2023-04-02T05:33:02;96286.44;;;11.17;63.75
48800;BME280;34611;47.964;7.982;2023-04-02T05:40:29;96296.03;;;11.16;63.60
48800;BME280;34611;47.964;7.982;2023-04-02T05:47:28;96290.84;;;11.16;63.80
48800;BME280;34611;47.964;7.982;2023-04-02T05:54:32;96290.03;;;11.16;63.70
48800;BME280;34611;47.964;7.982;2023-04-02T06:01:35;96299.44;;;11.17;63.76
48800;BME280;34611;47.964;7.982;2023-04-02T06:08:47;96302.06;;;11.17;63.76
48800;BME280;34611;47.964;7.982;2023-04-02T06:15:49;96308.09;;;11.17;63.77
48800;BME280;34611;47.964;7.982;2023-04-02T06:23:00;96314.25;;;11.16;63.71
48800;BME280;34611;47.964;7.982;2023-04-02T06:30:04;96315.91;;;11.17;63.59
48800;BME280;34611;47.964;7.982;2023-04-02T06:44:13;96333.28;;;11.17;63.58
48800;BME280;34611;47.964;7.982;2023-04-02T06:51:41;96352.31;;;11.17;63.65
48800;BME280;34611;47.964;7.982;2023-04-02T06:58:43;96357.53;;;11.17;63.66
48800;BME280;34611;47.964;7.982;2023-04-02T07:05:43;96359.28;;;11.17;63.57
48800;BME280;34611;47.964;7.982;2023-04-02T07:12:45;96373.13;;;11.17;63.59
48800;BME280;34611;47.964;7.982;2023-04-02T07:19:46;96373.13;;;11.17;63.63
48800;BME280;34611;47.964;7.982;2023-04-02T07:26:49;96386.13;;;11.17;63.60
48800;BME280;34611;47.964;7.982;2023-04-02T07:33:51;96388.75;;;11.17;63.85
48800;BME280;34611;47.964;7.982;2023-04-02T07:40:51;96397.34;;;11.18;63.69
48800;BME280;34611;47.964;7.982;2023-04-02T07:47:52;96400.91;;;11.17;63.63
48800;BME280;34611;47.964;7.982;2023-04-02T07:54:52;96413.09;;;11.16;63.52
48800;BME280;34611;47.964;7.982;2023-04-02T08:01:53;96420.09;;;11.16;63.69
48800;BME280;34611;47.964;7.982;2023-04-02T08:08:53;96432.13;;;11.17;63.60
48800;BME280;34611;47.964;7.982;2023-04-02T08:15:56;96438.16;;;11.17;63.72
48800;BME280;34611;47.964;7.982;2023-04-02T08:22:56;96449.53;;;11.16;63.69
48800;BME280;34611;47.964;7.982;2023-04-02T08:29:57;96448.56;;;11.17;63.86
48800;BME280;34611;47.964;7.982;2023-04-02T08:36:58;96462.41;;;11.18;63.83
48800;BME280;34611;47.964;7.982;2023-04-02T08:44:02;96461.59;;;11.17;63.76
48800;BME280;34611;47.964;7.982;2023-04-02T08:51:15;96477.19;;;11.17;63.88
48800;BME280;34611;47.964;7.982;2023-04-02T08:58:28;96477.19;;;11.17;63.77
48800;BME280;34611;47.964;7.982;2023-04-02T09:05:32;96478.94;;;11.17;63.80
48800;BME280;34611;47.964;7.982;2023-04-02T09:12:33;96484.16;;;11.17;63.72
48800;BME280;34611;47.964;7.982;2023-04-02T09:19:35;96484.16;;;11.17;63.69
48800;BME280;34611;47.964;7.982;2023-04-02T09:26:37;96504.03;;;11.18;63.73
48800;BME280;34611;47.964;7.982;2023-04-02T09:33:44;96496.22;;;11.18;63.67
48800;BME280;34611;47.964;7.982;2023-04-02T09:47:54;96516.22;;;11.17;63.86
48800;BME280;34611;47.964;7.982;2023-04-02T10:02:22;96523.19;;;11.17;63.77
48800;BME280;34611;47.964;7.982;2023-04-02T10:09:27;96524.03;;;11.17;63.75
48800;BME280;34611;47.964;7.982;2023-04-02T10:16:39;96542.22;;;11.17;63.72
48800;BME280;34611;47.964;7.982;2023-04-02T10:23:40;96538.78;;;11.17;63.69
48800;BME280;34611;47.964;7.982;2023-04-02T10:37:47;96551.78;;;11.17;63.93
48800;BME280;34611;47.964;7.982;2023-04-02T10:58:53;96566.59;;;11.16;63.88
48800;BME280;34611;47.964;7.982;2023-04-02T11:05:57;96569.06;;;11.18;63.80
48800;BME280;34611;47.964;7.982;2023-04-02T11:27:31;96587.28;;;11.18;63.77
48800;BME280;34611;47.964;7.982;2023-04-02T11:41:59;96603.81;;;11.17;63.78
48800;BME280;34611;47.964;7.982;2023-04-02T11:49:31;96609.88;;;11.17;63.74
48800;BME280;34611;47.964;7.982;2023-04-02T12:11:02;96619.31;;;11.18;63.84
48800;BME280;34611;47.964;7.982;2023-04-02T12:18:11;96627.13;;;11.18;63.88
48800;BME280;34611;47.964;7.982;2023-04-02T12:25:31;96628.78;;;11.19;63.67
48800;BME280;34611;47.964;7.982;2023-04-02T12:32:32;96627.94;;;11.19;63.96
48800;BME280;34611;47.964;7.982;2023-04-02T12:39:32;96647.94;;;11.18;63.67
48800;BME280;34611;47.964;7.982;2023-04-02T12:46:33;96649.59;;;11.19;63.79
48800;BME280;34611;47.964;7.982;2023-04-02T12:53:35;96653.69;;;11.31;63.25
48800;BME280;34611;47.964;7.982;2023-04-02T13:00:35;96659.97;;;11.29;63.75
48800;BME280;34611;47.964;7.982;2023-04-02T13:07:36;96656.28;;;11.22;64.19
48800;BME280;34611;47.964;7.982;2023-04-02T13:14:36;96665.03;;;11.21;64.15
48800;BME280;34611;47.964;7.982;2023-04-02T13:21:37;96675.31;;;11.22;64.19
48800;BME280;34611;47.964;7.982;2023-04-02T13:28:42;96678.88;;;11.21;64.42
48800;BME280;34611;47.964;7.982;2023-04-02T13:35:52;96686.53;;;11.23;64.32
48800;BME280;34611;47.964;7.982;2023-04-02T13:42:52;96688.19;;;11.24;64.37
48800;BME280;34611;47.964;7.982;2023-04-02T13:49:53;96694.50;;;11.21;64.51
48800;BME280;34611;47.964;7.982;2023-04-02T13:56:54;96704.75;;;11.23;64.57
48800;BME280;34611;47.964;7.982;2023-04-02T14:03:54;96712.56;;;11.23;64.37
48800;BME280;34611;47.964;7.982;2023-04-02T14:25:37;96724.63;;;11.24;64.51
48800;BME280;34611;47.964;7.982;2023-04-02T14:32:53;96735.03;;;11.24;64.72
48800;BME280;34611;47.964;7.982;2023-04-02T14:47:04;96755.03;;;11.23;64.89
48800;BME280;34611;47.964;7.982;2023-04-02T14:54:20;96769.69;;;11.24;64.65
48800;BME280;34611;47.964;7.982;2023-04-02T15:01:56;96774.06;;;11.24;64.74
48800;BME280;34611;47.964;7.982;2023-04-02T15:09:24;96781.06;;;11.23;64.84
48800;BME280;34611;47.964;7.982;2023-04-02T15:16:21;96782.69;;;11.24;64.82
48800;BME280;34611;47.964;7.982;2023-04-02T15:23:29;96790.50;;;11.24;64.88
48800;BME280;34611;47.964;7.982;2023-04-02T15:30:36;96781.75;;;11.25;64.79
48800;BME280;34611;47.964;7.982;2023-04-02T16:06:24;96811.19;;;11.26;64.88
48800;BME280;34611;47.964;7.982;2023-04-02T16:20:30;96828.88;;;11.32;64.93
48800;BME280;34611;47.964;7.982;2023-04-02T16:27:33;96832.81;;;11.26;64.84
48800;BME280;34611;47.964;7.982;2023-04-02T16:34:45;96837.19;;;11.26;64.91
48800;BME280;34611;47.964;7.982;2023-04-02T16:48:57;96849.41;;;11.25;64.90
48800;BME280;34611;47.964;7.982;2023-04-02T16:56:07;96858.97;;;11.25;64.84
48800;BME280;34611;47.964;7.982;2023-04-02T17:17:16;96878.16;;;11.24;64.87
48800;BME280;34611;47.964;7.982;2023-04-02T17:24:29;96882.38;;;11.25;64.64
48800;BME280;34611;47.964;7.982;2023-04-02T17:31:32;96886.78;;;11.24;64.73
48800;BME280;34611;47.964;7.982;2023-04-02T17:45:43;96920.59;;;11.24;64.78
48800;BME280;34611;47.964;7.982;2023-04-02T18:29:00;96971.94;;;11.22;64.68
48800;BME280;34611;47.964;7.982;2023-04-02T18:36:09;96978.81;;;11.23;64.52
48800;BME280;34611;47.964;7.982;2023-04-02T18:50:33;96997.03;;;11.23;64.76
48800;BME280;34611;47.964;7.982;2023-04-02T18:57:32;97002.22;;;11.23;64.59
48800;BME280;34611;47.964;7.982;2023-04-02T19:04:35;97017.84;;;11.23;64.49
48800;BME280;34611;47.964;7.982;2023-04-02T19:11:36;97021.25;;;11.24;64.59
48800;BME280;34611;47.964;7.982;2023-04-02T19:32:56;97050.81;;;11.23;64.77
48800;BME280;34611;47.964;7.982;2023-04-02T19:46:59;97067.28;;;11.23;64.62
48800;BME280;34611;47.964;7.982;2023-04-02T19:54:00;97077.69;;;11.23;64.67
48800;BME280;34611;47.964;7.982;2023-04-02T20:01:00;97082.06;;;11.23;64.52
48800;BME280;34611;47.964;7.982;2023-04-02T20:08:01;97092.47;;;11.23;64.44
48800;BME280;34611;47.964;7.982;2023-04-02T20:15:02;97095.91;;;11.23;64.60
48800;BME280;34611;47.964;7.982;2023-04-02T20:22:02;97106.44;;;11.22;64.54
48800;BME280;34611;47.964;7.982;2023-04-02T20:29:02;97108.06;;;11.23;64.63
48800;BME280;34611;47.964;7.982;2023-04-02T20:36:04;97115.88;;;11.23;64.56
48800;BME280;34611;47.964;7.982;2023-04-02T20:43:05;97120.16;;;11.24;64.42
48800;BME280;34611;47.964;7.982;2023-04-02T20:50:06;97129.75;;;11.23;64.68
48800;BME280;34611;47.964;7.982;2023-04-02T20:57:06;97139.38;;;11.32;64.79
48800;BME280;34611;47.964;7.982;2023-04-02T21:04:06;97145.09;;;11.26;64.72
48800;BME280;34611;47.964;7.982;2023-04-02T21:11:07;97140.97;;;11.24;64.92
48800;BME280;34611;47.964;7.982;2023-04-02T21:18:07;97147.81;;;11.25;64.67
48800;BME280;34611;47.964;7.982;2023-04-02T21:25:08;97153.00;;;11.25;64.63
48800;BME280;34611;47.964;7.982;2023-04-02T21:32:08;97157.41;;;11.24;64.71
48800;BME280;34611;47.964;7.982;2023-04-02T21:39:10;97161.78;;;11.24;64.80
48800;BME280;34611;47.964;7.982;2023-04-02T21:46:11;97165.22;;;11.24;64.60
48800;BME280;34611;47.964;7.982;2023-04-02T21:53:11;97160.97;;;11.23;64.83
48800;BME280;34611;47.964;7.982;2023-04-02T22:00:11;97161.78;;;11.24;64.81
48800;BME280;34611;47.964;7.982;2023-04-02T22:07:12;97166.16;;;11.23;64.80
48800;BME280;34611;47.964;7.982;2023-04-02T22:14:12;97173.97;;;11.23;64.78
48800;BME280;34611;47.964;7.982;2023-04-02T22:21:13;97168.78;;;11.23;64.60
48800;BME280;34611;47.964;7.982;2023-04-02T22:28:14;97178.22;;;11.24;64.62
48800;BME280;34611;47.964;7.982;2023-04-02T22:35:14;97187.94;;;11.22;64.55
48800;BME280;34611;47.964;7.982;2023-04-02T22:42:16;97190.53;;;11.22;64.72
48800;BME280;34611;47.964;7.982;2023-04-02T22:49:16;97195.63;;;11.24;64.62
48800;BME280;34611;47.964;7.982;2023-04-02T22:56:18;97200.81;;;11.24;64.60
48800;BME280;34611;47.964;7.982;2023-04-02T23:03:20;97204.25;;;11.24;64.62
48800;BME280;34611;47.964;7.982;2023-04-02T23:10:21;97208.63;;;11.24;64.82
48800;BME280;34611;47.964;7.982;2023-04-02T23:17:21;97212.16;;;11.23;64.82
48800;BME280;34611;47.964;7.982;2023-04-02T23:24:21;97220.81;;;11.23;64.49
48800;BME280;34611;47.964;7.982;2023-04-02T23:31:22;97219.03;;;11.24;64.77
48800;BME280;34611;47.964;7.982;2023-04-02T23:38:22;97219.03;;;11.24;64.70
48800;BME280;34611;47.964;7.982;2023-04-02T23:45:23;97219.97;;;11.23;64.61
48800;BME280;34611;47.964;7.982;2023-04-02T23:52:23;97222.56;;;11.23;64.70
48800;BME280;34611;47.964;7.982;2023-04-02T23:59:23;97212.16;;;11.23;64.63
